トロント/ピアソン の空港の天気 - METARとTAF

トロント・ピアソン国際空港 ( CYYZ / YYZ ) - カナダ オンタリオ州トロント
飛行場実況気象(Metar)
観測時間10/20 13:00 EDT (10/20 17:00 UTC)
風向・風速北西 6m/s 瞬間風速9m/s
視程10km以上
天気現象
全天の8割程度の雲 雲底高度 1680m
全天の8割程度の雲 雲底高度 2290m
気温11℃
湿度47%
気圧1004hPa
METARCYYZ 201700Z 32012G18KT 15SM BKN055 BKN075 11/M00 A2964 RMK SC6AC1 SLP040 DENSITY ALT 600FT
過去の天気等 Google飛行場航空写真 Wunderground天気予報

過去48時間のMETAR

飛行場予報(TAF)
発表時間: 10/20 10:38 EDT (10/20 14:38 UTC)
予報対象時間: 20日11時 EDT ~ 21日14時 EDT
風向・風速西北西 5m/s
視程10km以上
全天の4割程度の雲 雲底高度 910m
20日13時 EDT から
風向・風速西 6m/s 瞬間風速 11m/s
視程10km以上
全天の8割程度の雲 雲底高度 1220m
20日15時 EDT ~ 20日19時 EDT に一時的に
視程10km以上
天気現象弱いしゅう雨
20日16時 EDT ~ 20日18時 EDT に徐々に
風向・風速北西 6m/s
20日19時 EDT から
風向・風速北北西 9m/s 瞬間風速 14m/s
視程10km以上
全天の4割程度の雲 雲底高度 1220m
21日5時 EDT から
風向・風速北北西 6m/s 瞬間風速 11m/s
視程10km以上
全天の8割程度の雲 雲底高度 1220m
21日5時 EDT ~ 21日11時 EDT に一時的に
視程10km以上
天気現象弱いしゅう雪
21日5時 EDT ~ 21日7時 EDT に徐々に
風向・風速北北西 6m/s
21日11時 EDT から
風向・風速北北西 4m/s
視程10km以上
全天の8割程度の雲 雲底高度 1220m
TAF CYYZ 201438Z 2015/2118 29010KT P6SM SCT030
FM201700 28012G22KT P6SM BKN040
TEMPO 2019/2023 P6SM -SHRA
BECMG 2020/2022 32012KT
FM202300 34018G28KT P6SM SCT040
FM210900 34012G22KT P6SM BKN040
TEMPO 2109/2115 P6SM -SHSN
BECMG 2109/2111 34012KT
FM211500 33008KT P6SM BKN040 RMK NXT FCST BY 201800Z